Portada
METAR-TAF:

METAR-TAF

Aeropuertos :

Burlington, Iowa, Estados Unidos

latitud: 40-46-22N, longitud: 091-07-31W, altitud: 212 m

Observación

El informe se hizo hace 22 minutos, a las 07:53 UTC
Viento 4 kt del norte-noreste
Temperatura 12°C
Humedad 82%
Presión 1024 hPa
Visibilidad: 16.1 km
Cielo despejado

METAR: KBRL 310753Z AUTO 02004KT 10SM CLR 12/09 A3025 RMK AO2 SLP244 T01170094

Hora: 03:15 (08:15 UTC)

Pronóstico

El informe se hizo hace 2 horas y 55 minutos, a las 05:20 UTC
Pronóstico válido del 31 a las 06 UTC al 01 a las 06 UTC
Viento 4 kt con dirección variable
Visibilidad: 10 km
Cielo despejado
A partir de las 31 a las 1400 UTC
Viento 7 kt del sureste
Visibilidad: 10 km
Nubes dispersas a una altura de 15000 ft
A partir de las 31 a las 1800 UTC
Viento 6 kt del sur
Visibilidad: 10 km
Nubes dispersas a una altura de 10000 ft

TAF: KBRL 310520Z 3106/0106 VRB04KT P6SM SKC FM311400 13007KT P6SM SCT150 FM311800 18006KT P6SM SCT100

Observaciones y pronósticos meteorológicos de más de 4000 aeropuertos (mensajes METAR y TAF).

Los puntos amarillos y rojos representan las estaciones disponibles.

Ponga el ratón en el punto deseado para ver el nombre de la estación.

Haga clic para ver las observaciones y los pronósticos meteorológicos.

Para cambiar el mapa : haga clic en los botones verdes con una cruz de color negro para hacer un zoom, en el botón verde con un guión para alejar o en las flechas verdes para mapas adyacentes.


METAR-TAF: